createdAt,value
2023-04-12T00:01:56.012Z,8.20
2023-04-12T00:04:28.666Z,8.10
2023-04-12T00:06:57.997Z,8.20
2023-04-12T00:09:30.717Z,8.10
2023-04-12T00:11:59.651Z,8.00
2023-04-12T00:14:29.394Z,8.10
2023-04-12T00:16:57.280Z,8.10
2023-04-12T00:19:27.766Z,8.10
2023-04-12T00:21:56.526Z,8.10
2023-04-12T00:24:24.512Z,8.20
2023-04-12T00:26:52.882Z,8.20
2023-04-12T00:29:21.197Z,8.10
2023-04-12T00:31:50.462Z,8.10
2023-04-12T00:34:18.544Z,8.10
2023-04-12T00:36:46.464Z,8.10
2023-04-12T00:39:14.383Z,8.20
2023-04-12T00:41:42.484Z,8.10
2023-04-12T00:44:10.443Z,8.00
2023-04-12T00:46:39.080Z,8.00
2023-04-12T00:49:08.849Z,7.90
2023-04-12T00:51:38.211Z,8.00
2023-04-12T00:54:07.388Z,8.00
2023-04-12T00:56:36.828Z,8.10
2023-04-12T00:59:05.436Z,8.00
2023-04-12T01:01:33.544Z,8.00
2023-04-12T01:04:04.700Z,8.00
2023-04-12T01:06:52.117Z,8.10
2023-04-12T01:09:30.829Z,8.10
2023-04-12T01:12:10.007Z,7.90
2023-04-12T01:14:46.784Z,8.00
2023-04-12T01:17:20.793Z,7.90
2023-04-12T01:19:59.314Z,8.10
2023-04-12T01:23:03.643Z,8.00
2023-04-12T01:25:40.449Z,8.00
2023-04-12T01:28:12.804Z,8.10
2023-04-12T01:30:42.549Z,8.10
2023-04-12T01:33:13.555Z,8.20
2023-04-12T01:35:42.592Z,8.20
2023-04-12T01:38:11.584Z,8.10
2023-04-12T01:40:40.708Z,8.20
2023-04-12T01:43:11.453Z,8.20
2023-04-12T01:45:39.819Z,8.20
2023-04-12T01:48:09.751Z,8.20
2023-04-12T01:50:43.848Z,8.30
2023-04-12T01:53:16.015Z,8.20
2023-04-12T01:55:46.669Z,8.30
2023-04-12T01:58:18.393Z,8.40
2023-04-12T02:00:47.071Z,8.40
2023-04-12T02:03:15.537Z,8.40
2023-04-12T02:05:44.074Z,8.40
2023-04-12T02:08:12.918Z,8.30
2023-04-12T02:10:41.209Z,8.30
2023-04-12T02:13:09.263Z,8.20
2023-04-12T02:15:38.600Z,8.20
2023-04-12T02:18:06.972Z,8.30
2023-04-12T02:20:35.545Z,8.30
2023-04-12T02:23:04.036Z,8.30
2023-04-12T02:25:33.334Z,8.20
2023-04-12T02:28:01.397Z,8.30
2023-04-12T02:30:29.550Z,8.30
2023-04-12T02:32:58.873Z,8.30
2023-04-12T02:35:27.188Z,8.30
2023-04-12T02:37:58.530Z,8.20
2023-04-12T02:40:26.885Z,8.10
2023-04-12T02:42:54.746Z,8.10
2023-04-12T02:45:22.983Z,8.20
2023-04-12T02:47:51.248Z,8.10
2023-04-12T02:50:20.771Z,8.10
2023-04-12T02:52:49.160Z,8.10
2023-04-12T02:55:17.315Z,8.20
2023-04-12T02:57:45.865Z,8.10
2023-04-12T03:00:15.407Z,8.00
2023-04-12T03:02:43.972Z,8.00
2023-04-12T03:05:12.528Z,8.00
2023-04-12T03:07:41.787Z,7.90
2023-04-12T03:10:11.512Z,7.90
2023-04-12T03:12:39.511Z,7.80
2023-04-12T03:15:08.693Z,7.90
2023-04-12T03:17:36.658Z,7.80
2023-04-12T03:20:08.045Z,7.70
2023-04-12T03:22:36.373Z,7.70
2023-04-12T03:25:06.197Z,7.60
2023-04-12T03:27:34.276Z,7.60
2023-04-12T03:30:02.236Z,7.50
2023-04-12T03:32:30.453Z,7.50
2023-04-12T03:34:58.830Z,7.50
2023-04-12T03:37:26.733Z,7.50
2023-04-12T03:39:55.448Z,7.40
2023-04-12T03:42:33.241Z,7.50
2023-04-12T03:45:02.146Z,7.50
2023-04-12T03:47:30.611Z,7.40
2023-04-12T03:50:11.448Z,7.50
2023-04-12T03:52:40.203Z,7.50
2023-04-12T03:55:09.092Z,7.40
2023-04-12T03:57:38.358Z,7.30
2023-04-12T04:00:08.797Z,7.20
2023-04-12T04:02:37.260Z,7.20
2023-04-12T04:05:06.276Z,7.30
2023-04-12T04:07:35.120Z,7.30
2023-04-12T04:10:03.350Z,7.30
2023-04-12T04:12:31.388Z,7.20
2023-04-12T04:15:00.708Z,7.20
2023-04-12T04:17:29.163Z,7.20
2023-04-12T04:19:57.243Z,7.20
2023-04-12T04:22:25.144Z,7.10
2023-04-12T04:24:53.037Z,7.20
2023-04-12T04:27:22.330Z,7.10
2023-04-12T04:29:51.103Z,7.10
2023-04-12T04:32:20.807Z,7.10
2023-04-12T04:34:48.744Z,7.20
2023-04-12T04:37:17.490Z,7.10
2023-04-12T04:39:45.697Z,7.20
2023-04-12T04:42:13.890Z,7.20
2023-04-12T04:44:41.920Z,7.10
2023-04-12T04:47:10.004Z,7.10
2023-04-12T04:49:39.420Z,7.00
2023-04-12T04:52:08.725Z,7.20
2023-04-12T04:54:36.829Z,7.20
2023-04-12T04:57:06.656Z,7.20
2023-04-12T04:59:34.653Z,7.20
2023-04-12T05:02:02.935Z,7.30
2023-04-12T05:04:31.365Z,7.30
2023-04-12T05:07:01.823Z,7.20
2023-04-12T05:09:29.858Z,7.20
2023-04-12T05:11:58.034Z,7.30
2023-04-12T05:14:37.534Z,7.20
2023-04-12T05:17:12.259Z,7.20
2023-04-12T05:19:40.626Z,7.10
2023-04-12T05:22:09.839Z,7.10
2023-04-12T05:24:38.025Z,7.10
2023-04-12T05:27:05.945Z,7.10
2023-04-12T05:29:33.833Z,7.20
2023-04-12T05:32:01.846Z,7.30
2023-04-12T05:34:30.353Z,7.40
2023-04-12T05:36:59.549Z,7.30
2023-04-12T05:39:29.346Z,7.40
2023-04-12T05:41:57.240Z,7.40
2023-04-12T05:44:25.831Z,7.40
2023-04-12T05:46:53.752Z,7.30
2023-04-12T05:49:21.669Z,7.30
2023-04-12T05:51:49.672Z,7.40
2023-04-12T05:54:20.940Z,7.30
2023-04-12T05:56:50.399Z,7.30
2023-04-12T05:59:18.651Z,7.30
2023-04-12T06:01:46.949Z,7.40
2023-04-12T06:04:16.160Z,7.30
2023-04-12T06:06:44.547Z,7.30
2023-04-12T06:09:12.627Z,7.30
2023-04-12T06:11:40.554Z,7.30
2023-04-12T06:14:11.737Z,7.30
2023-04-12T06:16:41.811Z,7.30
2023-04-12T06:19:11.131Z,7.30
2023-04-12T06:21:39.089Z,7.30
2023-04-12T06:24:07.972Z,7.40
2023-04-12T06:26:39.820Z,7.40
2023-04-12T06:29:09.594Z,7.50
2023-04-12T06:31:37.752Z,7.40
2023-04-12T06:34:05.677Z,7.60
2023-04-12T06:36:33.825Z,7.60
2023-04-12T06:39:01.722Z,7.60
2023-04-12T06:41:29.904Z,7.60
2023-04-12T06:43:57.777Z,7.60
2023-04-12T06:46:30.207Z,7.60
2023-04-12T06:48:58.349Z,7.60
2023-04-12T06:51:26.530Z,7.70
2023-04-12T06:53:54.839Z,7.80
2023-04-12T06:56:22.759Z,7.90
2023-04-12T06:58:50.660Z,7.90
2023-04-12T07:01:18.863Z,8.10
2023-04-12T07:03:48.457Z,8.00
2023-04-12T07:06:25.035Z,8.00
2023-04-12T07:08:55.002Z,8.10
2023-04-12T07:11:23.801Z,8.10
2023-04-12T07:13:52.396Z,8.10
2023-04-12T07:16:20.374Z,8.00
2023-04-12T07:18:50.352Z,8.10
2023-04-12T07:21:18.522Z,8.10
2023-04-12T07:23:47.471Z,8.40
2023-04-12T07:26:15.575Z,8.40
2023-04-12T07:28:43.468Z,8.40
2023-04-12T07:31:11.609Z,8.50
2023-04-12T07:33:42.740Z,8.60
2023-04-12T07:36:13.020Z,8.80
2023-04-12T07:38:40.932Z,9.10
2023-04-12T07:41:09.213Z,9.20
2023-04-12T07:43:37.141Z,9.30
2023-04-12T07:46:08.635Z,9.10
2023-04-12T07:48:37.073Z,9.20
2023-04-12T07:51:05.844Z,9.40
2023-04-12T07:53:35.087Z,9.70
2023-04-12T07:56:05.220Z,9.80
2023-04-12T07:58:35.214Z,9.90
2023-04-12T08:01:03.128Z,9.80
2023-04-12T08:03:31.458Z,9.80
2023-04-12T08:06:01.605Z,9.90
2023-04-12T08:08:29.585Z,9.90
2023-04-12T08:10:58.851Z,10.00
2023-04-12T08:13:27.359Z,9.90
2023-04-12T08:15:55.441Z,10.00
2023-04-12T08:18:23.526Z,9.90
2023-04-12T08:20:52.155Z,9.90
2023-04-12T08:23:20.071Z,9.90
2023-04-12T08:25:48.147Z,9.80
2023-04-12T08:28:17.400Z,9.90
2023-04-12T08:30:45.605Z,9.80
2023-04-12T08:33:13.526Z,9.80
2023-04-12T08:35:41.635Z,9.80
2023-04-12T08:38:09.745Z,9.70
2023-04-12T08:40:38.332Z,9.60
2023-04-12T08:43:11.493Z,9.60
2023-04-12T08:45:40.794Z,9.40
2023-04-12T08:48:08.997Z,9.60
2023-04-12T08:50:37.268Z,9.70
2023-04-12T08:56:18.035Z,10.00
2023-04-12T08:58:48.922Z,9.90
2023-04-12T09:01:18.787Z,9.70
2023-04-12T09:03:47.298Z,9.70
2023-04-12T09:06:15.653Z,9.60
2023-04-12T09:08:53.993Z,9.60
2023-04-12T09:11:28.246Z,9.60
2023-04-12T09:13:58.164Z,9.80
2023-04-12T09:16:37.472Z,9.70
2023-04-12T09:19:05.556Z,9.70
2023-04-12T09:21:35.013Z,9.70
2023-04-12T09:24:11.652Z,10.10
2023-04-12T09:26:43.414Z,10.40
2023-04-12T09:29:25.251Z,10.70
2023-04-12T09:31:57.830Z,11.00
2023-04-12T09:34:27.685Z,11.20
2023-04-12T09:36:56.134Z,11.60
2023-04-12T09:39:36.008Z,11.70
2023-04-12T09:42:31.845Z,12.00
2023-04-12T09:45:03.835Z,12.40
2023-04-12T09:47:40.138Z,12.60
2023-04-12T09:50:09.870Z,12.90
2023-04-12T09:52:39.166Z,13.10
2023-04-12T09:55:10.743Z,13.00
2023-04-12T09:57:42.431Z,13.00
2023-04-12T10:00:14.175Z,13.00
2023-04-12T10:02:46.116Z,13.20
2023-04-12T10:05:17.386Z,13.60
2023-04-12T10:07:46.624Z,14.50
2023-04-12T10:10:17.273Z,14.80
2023-04-12T10:12:48.480Z,16.10
2023-04-12T10:15:18.592Z,16.60
2023-04-12T10:17:48.137Z,16.80
2023-04-12T10:20:17.231Z,16.90
2023-04-12T10:22:47.043Z,16.50
2023-04-12T10:25:16.423Z,16.80
2023-04-12T10:27:46.973Z,17.10
2023-04-12T10:30:25.786Z,18.10
2023-04-12T10:33:13.480Z,19.10
2023-04-12T10:35:53.239Z,19.30
2023-04-12T10:38:21.488Z,20.10
2023-04-12T10:41:09.032Z,20.40
2023-04-12T10:43:38.512Z,20.80
2023-04-12T10:46:07.093Z,20.30
2023-04-12T10:48:36.552Z,20.10
2023-04-12T10:51:23.093Z,19.10
2023-04-12T10:53:52.384Z,19.20
2023-04-12T10:56:40.713Z,19.30
2023-04-12T10:59:10.791Z,19.10
2023-04-12T11:01:39.997Z,18.50
2023-04-12T11:04:16.874Z,18.30
2023-04-12T11:06:50.390Z,18.10
2023-04-12T11:09:22.893Z,17.40
2023-04-12T11:11:51.129Z,17.60
2023-04-12T11:14:28.395Z,17.10
2023-04-12T11:17:24.739Z,16.80
2023-04-12T11:19:55.483Z,16.70
2023-04-12T11:22:24.960Z,16.60
2023-04-12T11:24:54.446Z,16.50
2023-04-12T11:27:23.765Z,16.20
2023-04-12T11:29:55.759Z,16.30
2023-04-12T11:32:26.582Z,16.10
2023-04-12T11:34:56.078Z,16.10
2023-04-12T11:37:27.265Z,15.80
2023-04-12T11:39:58.156Z,15.90
2023-04-12T11:42:27.528Z,16.00
2023-04-12T11:45:01.425Z,16.20
2023-04-12T11:47:33.419Z,16.10
2023-04-12T11:50:01.486Z,16.00
2023-04-12T11:52:31.169Z,16.00
2023-04-12T11:55:04.978Z,15.90
2023-04-12T11:57:33.394Z,15.80
2023-04-12T12:00:06.332Z,15.70
2023-04-12T12:02:41.284Z,15.90
2023-04-12T12:05:12.727Z,15.80
2023-04-12T12:07:41.134Z,15.70
2023-04-12T12:10:10.497Z,15.70
2023-04-12T12:12:38.381Z,15.80
2023-04-12T12:15:09.635Z,15.90
2023-04-12T12:17:38.848Z,16.00
2023-04-12T12:20:08.029Z,16.20
2023-04-12T12:22:35.948Z,16.60
2023-04-12T12:25:04.045Z,16.70
2023-04-12T12:27:38.199Z,16.50
2023-04-12T12:30:10.346Z,16.50
2023-04-12T12:32:40.072Z,16.60
2023-04-12T12:35:10.758Z,16.50
2023-04-12T12:37:39.037Z,16.70
2023-04-12T12:40:11.408Z,16.90
2023-04-12T12:42:46.634Z,16.80
2023-04-12T12:45:17.006Z,16.90
2023-04-12T12:47:49.538Z,17.00
2023-04-12T12:50:18.960Z,17.20
2023-04-12T12:52:47.720Z,17.20
2023-04-12T12:55:16.413Z,17.30
2023-04-12T12:57:55.174Z,17.60
2023-04-12T13:00:34.862Z,17.70
2023-04-12T13:03:03.421Z,17.70
2023-04-12T13:05:31.690Z,17.80
2023-04-12T13:07:59.720Z,17.70
2023-04-12T13:10:27.651Z,17.70
2023-04-12T13:12:55.771Z,17.70
2023-04-12T13:15:24.775Z,17.40
2023-04-12T13:17:54.674Z,17.30
2023-04-12T13:20:23.298Z,17.30
2023-04-12T13:22:52.096Z,17.20
2023-04-12T13:25:20.875Z,17.00
2023-04-12T13:27:49.951Z,17.00
2023-04-12T13:30:18.826Z,17.00
2023-04-12T13:32:47.066Z,17.00
2023-04-12T13:35:16.322Z,17.00
2023-04-12T13:37:44.704Z,17.10
2023-04-12T13:40:12.994Z,17.20
2023-04-12T13:42:41.769Z,17.20
2023-04-12T13:45:12.055Z,17.00
2023-04-12T13:47:40.303Z,16.90
2023-04-12T13:50:09.296Z,16.80
2023-04-12T13:52:38.681Z,16.80
2023-04-12T13:55:08.298Z,16.50
2023-04-12T13:57:36.608Z,16.40
2023-04-12T14:00:05.073Z,16.30
2023-04-12T14:02:33.114Z,16.30
2023-04-12T14:05:01.325Z,16.40
2023-04-12T14:07:29.616Z,16.60
2023-04-12T14:09:59.122Z,16.90
2023-04-12T14:12:27.061Z,17.00
2023-04-12T14:14:54.982Z,17.40
2023-04-12T14:17:23.306Z,17.60
2023-04-12T14:19:51.271Z,17.80
2023-04-12T14:22:19.147Z,17.80
2023-04-12T14:24:47.601Z,17.90
2023-04-12T14:27:18.153Z,18.10
2023-04-12T14:29:46.464Z,18.10
2023-04-12T14:32:14.733Z,18.20
2023-04-12T14:34:43.554Z,18.20
2023-04-12T14:37:11.655Z,18.10
2023-04-12T14:39:39.585Z,18.00
2023-04-12T14:42:07.772Z,18.10
2023-04-12T14:44:37.210Z,18.00
2023-04-12T14:47:05.131Z,17.90
2023-04-12T14:49:33.542Z,17.90
2023-04-12T14:52:02.111Z,17.90
2023-04-12T14:54:30.041Z,17.90
2023-04-12T14:56:58.077Z,17.80
2023-04-12T14:59:27.401Z,17.90
2023-04-12T15:01:58.600Z,17.80
2023-04-12T15:04:27.037Z,17.80
2023-04-12T15:06:55.192Z,17.80
2023-04-12T15:09:23.364Z,17.80
2023-04-12T15:11:52.142Z,17.70
2023-04-12T15:14:20.848Z,17.50
2023-04-12T15:16:50.214Z,17.40
2023-04-12T15:19:23.456Z,17.30
2023-04-12T15:21:52.157Z,17.10
2023-04-12T15:24:20.815Z,17.10
2023-04-12T15:26:51.219Z,17.00
2023-04-12T15:29:21.210Z,17.00
2023-04-12T15:31:49.366Z,17.00
2023-04-12T15:34:18.997Z,16.90
2023-04-12T15:36:47.290Z,16.70
2023-04-12T15:39:15.860Z,16.70
2023-04-12T15:41:43.883Z,16.60
2023-04-12T15:44:13.512Z,16.50
2023-04-12T15:46:42.355Z,16.50
2023-04-12T15:49:11.188Z,16.40
2023-04-12T15:51:40.483Z,16.40
2023-04-12T15:54:08.789Z,16.30
2023-04-12T15:56:38.043Z,16.30
2023-04-12T15:59:06.286Z,16.10
2023-04-12T16:01:38.144Z,16.20
2023-04-12T16:04:06.973Z,16.20
2023-04-12T16:06:35.892Z,16.10
2023-04-12T16:09:05.848Z,16.10
2023-04-12T16:11:34.072Z,16.10
2023-04-12T16:14:02.201Z,16.20
2023-04-12T16:16:30.303Z,16.20
2023-04-12T16:19:00.243Z,16.10
2023-04-12T16:21:30.216Z,16.20
2023-04-12T16:23:58.706Z,16.10
2023-04-12T16:26:28.416Z,16.20
2023-04-12T16:28:56.806Z,16.10
2023-04-12T16:31:26.438Z,16.10
2023-04-12T16:33:54.910Z,16.10
2023-04-12T16:36:23.852Z,16.10
2023-04-12T16:38:55.132Z,16.10
2023-04-12T16:41:23.322Z,16.10
2023-04-12T16:43:53.995Z,16.00
2023-04-12T16:46:22.327Z,16.10
2023-04-12T16:48:50.693Z,16.10
2023-04-12T16:51:18.678Z,16.00
2023-04-12T16:53:46.871Z,16.00
2023-04-12T16:56:14.931Z,15.90
2023-04-12T16:58:43.021Z,15.90
2023-04-12T17:01:16.270Z,15.80
2023-04-12T17:03:45.119Z,15.70
2023-04-12T17:06:13.330Z,15.60
2023-04-12T17:08:41.222Z,15.60
2023-04-12T17:11:09.927Z,15.50
2023-04-12T17:13:37.998Z,15.50
2023-04-12T17:16:06.370Z,15.40
2023-04-12T17:18:36.847Z,15.50
2023-04-12T17:21:05.344Z,15.50
2023-04-12T17:23:33.559Z,15.50
2023-04-12T17:26:01.494Z,15.30
2023-04-12T17:28:29.975Z,15.30
2023-04-12T17:30:58.162Z,15.30
2023-04-12T17:33:26.181Z,15.20
2023-04-12T17:35:55.530Z,15.00
2023-04-12T17:38:23.711Z,15.00
2023-04-12T17:40:52.074Z,15.00
2023-04-12T17:43:19.947Z,14.80
2023-04-12T17:45:47.871Z,14.70
2023-04-12T17:48:16.035Z,14.80
2023-04-12T17:50:45.391Z,14.70
2023-04-12T17:53:14.786Z,14.60
2023-04-12T17:55:42.716Z,14.70
2023-04-12T17:58:10.757Z,14.70
2023-04-12T18:00:38.901Z,14.60
2023-04-12T18:03:07.784Z,14.60
2023-04-12T18:05:36.252Z,14.60
2023-04-12T18:08:04.475Z,14.70
2023-04-12T18:10:33.877Z,14.70
2023-04-12T18:13:02.240Z,14.60
2023-04-12T18:15:30.154Z,14.50
2023-04-12T18:17:58.331Z,14.40
2023-04-12T18:20:26.416Z,14.40
2023-04-12T18:22:54.568Z,14.30
2023-04-12T18:25:22.876Z,14.10
2023-04-12T18:27:52.536Z,14.10
2023-04-12T18:30:21.007Z,14.10
2023-04-12T18:32:48.982Z,14.10
2023-04-12T18:35:17.446Z,14.10
2023-04-12T18:37:45.841Z,14.00
2023-04-12T18:40:15.915Z,13.90
2023-04-12T18:42:45.712Z,13.70
2023-04-12T18:45:14.969Z,13.60
2023-04-12T18:47:45.016Z,13.50
2023-04-12T18:50:14.077Z,13.40
2023-04-12T18:52:41.984Z,13.30
2023-04-12T18:55:10.277Z,13.10
2023-04-12T18:57:38.328Z,12.90
2023-04-12T19:00:13.655Z,12.80
2023-04-12T19:02:43.302Z,12.60
2023-04-12T19:05:12.077Z,12.50
2023-04-12T19:07:40.157Z,12.40
2023-04-12T19:10:09.666Z,12.30
2023-04-12T19:12:37.722Z,12.20
2023-04-12T19:15:07.158Z,12.00
2023-04-12T19:17:38.734Z,12.00
2023-04-12T19:20:10.833Z,11.90
2023-04-12T19:22:39.027Z,11.80
2023-04-12T19:25:08.385Z,11.80
2023-04-12T19:27:36.724Z,11.80
2023-04-12T19:30:05.157Z,11.80
2023-04-12T19:32:33.509Z,11.70
2023-04-12T19:35:01.641Z,11.60
2023-04-12T19:37:33.902Z,11.50
2023-04-12T19:40:02.182Z,11.50
2023-04-12T19:42:30.070Z,11.60
2023-04-12T19:44:58.296Z,11.50
2023-04-12T19:47:26.373Z,11.50
2023-04-12T19:49:55.222Z,11.50
2023-04-12T19:52:23.263Z,11.50
2023-04-12T19:54:56.711Z,11.50
2023-04-12T19:57:25.037Z,11.40
2023-04-12T19:59:53.246Z,11.40
2023-04-12T20:02:21.470Z,11.40
2023-04-12T20:04:49.449Z,11.40
2023-04-12T20:07:17.510Z,11.50
2023-04-12T20:09:45.938Z,11.40
2023-04-12T20:12:16.564Z,11.40
2023-04-12T20:14:44.660Z,11.30
2023-04-12T20:17:12.756Z,11.20
2023-04-12T20:19:40.706Z,11.30
2023-04-12T20:22:08.857Z,11.30
2023-04-12T20:24:37.812Z,11.40
2023-04-12T20:27:06.648Z,11.30
2023-04-12T20:29:37.579Z,11.30
2023-04-12T20:32:05.933Z,11.30
2023-04-12T20:34:34.189Z,11.30
2023-04-12T20:37:02.236Z,11.20
2023-04-12T20:39:31.103Z,11.20
2023-04-12T20:42:01.125Z,11.10
2023-04-12T20:44:29.340Z,11.10
2023-04-12T20:46:58.927Z,11.20
2023-04-12T20:49:28.796Z,11.10
2023-04-12T20:51:57.127Z,11.10
2023-04-12T20:54:25.456Z,11.00
2023-04-12T20:56:54.334Z,11.00
2023-04-12T20:59:22.918Z,11.00
2023-04-12T21:01:51.268Z,11.00
2023-04-12T21:04:22.531Z,11.00
2023-04-12T21:06:55.306Z,11.00
2023-04-12T21:09:24.505Z,10.90
2023-04-12T21:11:53.024Z,10.90
2023-04-12T21:14:21.416Z,11.00
2023-04-12T21:16:49.715Z,10.90
2023-04-12T21:19:18.273Z,10.80
2023-04-12T21:21:48.319Z,10.80
2023-04-12T21:24:17.123Z,10.80
2023-04-12T21:26:45.131Z,10.80
2023-04-12T21:29:13.230Z,10.60
2023-04-12T21:31:41.932Z,10.70
2023-04-12T21:34:10.199Z,10.70
2023-04-12T21:36:38.675Z,10.60
2023-04-12T21:39:08.099Z,10.60
2023-04-12T21:41:37.350Z,10.50
2023-04-12T21:44:05.303Z,10.50
2023-04-12T21:46:33.348Z,10.50
2023-04-12T21:49:01.651Z,10.50
2023-04-12T21:51:29.857Z,10.50
2023-04-12T21:53:57.757Z,10.50
2023-04-12T21:56:27.066Z,10.40
2023-04-12T21:58:57.302Z,10.40
2023-04-12T22:01:25.469Z,10.40
2023-04-12T22:03:53.872Z,10.30
2023-04-12T22:06:22.167Z,10.30
2023-04-12T22:08:50.234Z,10.40
2023-04-12T22:11:18.443Z,10.40
2023-04-12T22:13:47.798Z,10.30
2023-04-12T22:16:16.963Z,10.30
2023-04-12T22:18:46.827Z,10.10
2023-04-12T22:21:15.318Z,10.00
2023-04-12T22:23:45.913Z,9.90
2023-04-12T22:26:14.411Z,9.90
2023-04-12T22:28:44.136Z,9.70
2023-04-12T22:31:16.162Z,9.80
2023-04-12T22:33:47.715Z,9.80
2023-04-12T22:36:15.661Z,9.70
2023-04-12T22:38:43.834Z,9.70
2023-04-12T22:41:16.324Z,9.70
2023-04-12T22:43:48.017Z,9.70
2023-04-12T22:46:18.485Z,9.90
2023-04-12T22:48:48.130Z,9.80
2023-04-12T22:51:16.536Z,9.70
2023-04-12T22:53:44.502Z,9.80
2023-04-12T22:56:13.721Z,9.70
2023-04-12T22:58:43.003Z,9.80
2023-04-12T23:01:11.217Z,9.70
2023-04-12T23:03:41.715Z,9.60
2023-04-12T23:06:12.614Z,9.60
2023-04-12T23:08:40.849Z,9.60
2023-04-12T23:11:08.814Z,9.50
2023-04-12T23:13:36.765Z,9.50
2023-04-12T23:16:05.982Z,9.50
2023-04-12T23:18:33.885Z,9.40
2023-04-12T23:21:03.140Z,9.40
2023-04-12T23:23:32.016Z,9.40
2023-04-12T23:26:00.891Z,9.50
2023-04-12T23:28:28.944Z,9.40
2023-04-12T23:30:57.765Z,9.50
2023-04-12T23:33:26.456Z,9.40
2023-04-12T23:35:55.970Z,9.30
2023-04-12T23:38:32.014Z,9.30
2023-04-12T23:41:00.646Z,9.30
2023-04-12T23:43:29.226Z,9.20
2023-04-12T23:45:57.573Z,9.20
2023-04-12T23:48:26.358Z,9.20
2023-04-12T23:50:54.473Z,9.20
2023-04-12T23:53:23.117Z,9.20
2023-04-12T23:55:54.145Z,9.20
2023-04-12T23:58:22.489Z,9.30
